Hlavní strana
METAR-TAF:

METAR-TAF

Letiště :

Pärnu, Estonsko

zeměpisná šířka: 58-25-09N, zeměpisná délka: 024-28-22E, výška: 14 m

Aktuální stav počasí

Zpráva byla vytvořena před 47 minutami, v 09:50 UTC
Západojihozápadní vítr 10 kt
Teplota 12°C
Vlhkost vzduchu 82%
Tlak 1015 hPa
Viditelnost 10 km a více
Skoro jasno ve výšce 1500 ft
Zataženo ve výšce 2700 ft

METAR: EEPU 230950Z 24010KT 9999 FEW015 OVC027 12/09 Q1015

Čas: 13:37 (10:37 UTC)


TAF: chybějící

Stav a předpovědi počasí z více než 4 000 letišť (zprávy METAR a TAF).

Červené a žluté tečky na mapě představují dostupné meteorologické stanice.

Když kurzor umístíte na tečku, zobrazí se název stanice.

Pak kliknutím zobrazíte stav a předpověď počasí.

Chcete-li změnit mapu, kliknutím na zelené tlačítko se znaménkem +mapu přiblížíte, kliknutím na zelené tlačítko se znaménkem – mapu oddálíte a kliknutím na zelené šipky přejdete na sousední mapy.


METAR-TAF: